Time;durP1;ratioP1;P1;durP2;ratioP2;P2;SDS_P1;SDS_P2;PMS_P1;PMS_P2;Temp;Humidity;BMP_temperature;BMP_pressure;BME280_temperature;BME280_humidity;BME280_pressure;Samples;Min_cycle;Max_cycle;Signal;HPM_P1;HPM_P2
2022/01/08 00:00:14;;;;;;;11.82;4.82;;;;;;;1.24;98.80;100761.53;5005331;28;20035;-77
2022/01/08 00:02:41;;;;;;;9.35;4.80;;;;;;;1.24;98.92;100758.97;5005498;28;20029;-77
2022/01/08 00:05:07;;;;;;;12.57;5.32;;;;;;;1.23;98.82;100757.38;5023688;28;20507;-77
2022/01/08 00:07:33;;;;;;;10.82;5.18;;;;;;;1.25;99.38;100749.59;5003708;28;20061;-77
2022/01/08 00:09:58;;;;;;;10.88;5.28;;;;;;;1.24;99.03;100753.88;5020167;28;20111;-77
2022/01/08 00:12:24;;;;;;;14.07;5.20;;;;;;;1.24;99.33;100760.72;5008863;28;20033;-77
2022/01/08 00:14:50;;;;;;;11.05;4.70;;;;;;;1.23;99.24;100769.31;5007872;28;20041;-77
2022/01/08 00:17:15;;;;;;;11.57;5.20;;;;;;;1.25;99.38;100764.94;5006596;28;20036;-77
2022/01/08 00:19:41;;;;;;;12.98;5.28;;;;;;;1.22;99.24;100771.03;5022233;28;20509;-77
2022/01/08 00:22:08;;;;;;;9.40;5.00;;;;;;;1.22;99.72;100768.47;5020771;28;20116;-77
2022/01/08 00:24:34;;;;;;;13.30;5.40;;;;;;;1.20;99.71;100780.53;5003851;28;20505;-77
2022/01/08 00:26:59;;;;;;;9.98;5.05;;;;;;;1.21;99.49;100783.94;5007078;28;20032;-77
2022/01/08 00:29:25;;;;;;;12.60;6.15;;;;;;;1.22;99.41;100780.44;5024432;28;20034;-77
2022/01/08 00:31:50;;;;;;;13.05;5.13;;;;;;;1.19;99.40;100786.56;5023150;28;20037;-77
2022/01/08 00:34:16;;;;;;;13.07;4.95;;;;;;;1.20;99.62;100784.84;5022178;28;20088;-77
2022/01/08 00:36:41;;;;;;;12.00;5.20;;;;;;;1.16;99.20;100786.75;5023524;28;20044;-77
2022/01/08 00:39:07;;;;;;;13.63;5.63;;;;;;;1.14;99.45;100789.41;5023212;28;20034;-77
2022/01/08 00:41:32;;;;;;;12.35;5.65;;;;;;;1.14;99.62;100786.03;5024191;28;20030;-77
2022/01/08 00:43:58;;;;;;;9.23;5.93;;;;;;;1.14;99.60;100791.16;5024648;28;20749;-77
2022/01/08 00:46:23;;;;;;;9.77;5.35;;;;;;;1.12;99.98;100791.22;5022599;28;20049;-78
2022/01/08 00:48:49;;;;;;;12.55;5.60;;;;;;;1.13;99.76;100785.22;5020910;28;20042;-76
2022/01/08 00:51:14;;;;;;;13.48;5.57;;;;;;;1.13;99.41;100792.88;5022958;28;20029;-77
2022/01/08 00:53:40;;;;;;;22.25;7.50;;;;;;;1.08;99.46;100787.22;5022871;28;20113;-77
2022/01/08 00:56:06;;;;;;;14.38;5.57;;;;;;;1.06;99.75;100801.84;5007056;28;20036;-77
2022/01/08 00:58:32;;;;;;;12.13;5.93;;;;;;;1.05;99.47;100794.25;5007921;28;20042;-77
2022/01/08 01:00:57;;;;;;;10.88;5.72;;;;;;;1.01;99.66;100796.19;5023615;28;20034;-77
2022/01/08 01:03:23;;;;;;;13.75;6.22;;;;;;;1.00;99.49;100799.66;5022395;28;20512;-77
2022/01/08 01:05:48;;;;;;;12.07;5.93;;;;;;;0.97;99.19;100793.00;5021650;28;20381;-77
2022/01/08 01:08:14;;;;;;;13.95;5.78;;;;;;;0.93;99.15;100785.63;5008176;28;20048;-77
2022/01/08 01:10:39;;;;;;;10.00;5.47;;;;;;;0.87;99.14;100793.66;4990629;28;20036;-77
2022/01/08 01:13:05;;;;;;;8.40;5.32;;;;;;;0.85;99.56;100785.25;5022807;28;20048;-77
2022/01/08 01:15:31;;;;;;;12.43;6.25;;;;;;;0.77;99.16;100790.84;5024796;28;20560;-77
2022/01/08 01:17:56;;;;;;;14.20;6.28;;;;;;;0.70;98.89;100790.41;5003780;28;20124;-77
2022/01/08 01:20:22;;;;;;;12.82;6.38;;;;;;;0.69;98.82;100790.47;5024822;28;20034;-79
2022/01/08 01:23:09;;;;;;;13.82;6.10;;;;;;;0.65;99.01;100794.94;4992672;28;20084;-79
2022/01/08 01:25:39;;;;;;;19.88;7.32;;;;;;;0.63;99.06;100795.97;5011255;28;20073;-78
2022/01/08 01:28:30;;;;;;;10.63;6.07;;;;;;;0.62;98.69;100807.88;5027857;28;20036;-78
2022/01/08 01:41:08;;;;;;;17.42;8.00;;;;;;;0.58;98.71;100812.38;5029112;28;20026;-79
2022/01/08 01:47:04;;;;;;;14.73;7.80;;;;;;;0.49;99.22;100809.53;5011963;28;20045;-79
2022/01/08 01:49:40;;;;;;;20.13;8.82;;;;;;;0.49;99.64;100807.81;5030667;28;20060;-79
2022/01/08 01:52:08;;;;;;;25.25;9.15;;;;;;;0.64;99.20;100816.28;5031484;28;20340;-79
2022/01/08 01:54:35;;;;;;;25.50;10.40;;;;;;;0.61;99.36;100824.13;5026271;28;20057;-79
2022/01/08 01:57:03;;;;;;;17.85;8.60;;;;;;;0.60;99.25;100821.66;5031091;28;20045;-78
2022/01/08 01:59:31;;;;;;;20.80;9.23;;;;;;;0.59;99.37;100813.19;5027258;28;20066;-77
2022/01/08 02:01:57;;;;;;;22.52;8.90;;;;;;;0.51;99.31;100810.25;5015574;28;20068;-78
2022/01/08 02:04:23;;;;;;;24.50;9.32;;;;;;;0.56;99.76;100810.81;5025308;28;20673;-79
2022/01/08 02:06:49;;;;;;;14.77;8.73;;;;;;;0.47;99.63;100812.19;5029891;28;20065;-78
2022/01/08 02:09:15;;;;;;;29.95;10.18;;;;;;;0.42;99.83;100809.09;5029318;28;20050;-78
2022/01/08 02:12:03;;;;;;;29.77;10.30;;;;;;;0.48;100.00;100811.25;5011391;28;20032;-79
2022/01/08 02:14:32;;;;;;;20.33;9.50;;;;;;;0.46;99.67;100815.63;5026508;28;20081;-79
2022/01/08 02:16:57;;;;;;;20.00;10.18;;;;;;;0.40;99.80;100818.56;5012564;28;20113;-80
2022/01/08 02:19:24;;;;;;;28.63;11.48;;;;;;;0.44;100.00;100809.00;5010643;28;20117;-78
2022/01/08 02:21:52;;;;;;;28.25;10.75;;;;;;;0.33;99.94;100810.44;5025482;28;20034;-78
2022/01/08 02:24:18;;;;;;;24.02;11.65;;;;;;;0.35;99.81;100813.72;5029436;28;20656;-78
2022/01/08 02:26:44;;;;;;;23.58;11.18;;;;;;;0.37;99.78;100814.44;5012570;28;20034;-78
2022/01/08 02:29:11;;;;;;;24.23;11.93;;;;;;;0.36;99.89;100812.81;5028575;28;20049;-78
2022/01/08 02:31:37;;;;;;;27.52;11.65;;;;;;;0.31;99.67;100809.69;5014920;28;20084;-79
2022/01/08 02:34:04;;;;;;;32.83;12.07;;;;;;;0.34;99.68;100818.91;5029301;28;20034;-78
2022/01/08 02:36:30;;;;;;;25.38;12.32;;;;;;;0.30;99.71;100814.88;5013982;28;20092;-79
2022/01/08 02:38:56;;;;;;;24.58;11.93;;;;;;;0.25;100.00;100814.34;5012178;28;20041;-79
2022/01/08 02:41:21;;;;;;;28.60;12.43;;;;;;;0.27;100.00;100817.63;5013413;28;20092;-79
2022/01/08 02:43:52;;;;;;;26.30;12.45;;;;;;;0.33;99.87;100805.31;5030088;28;20496;-78
2022/01/08 02:46:18;;;;;;;31.70;14.63;;;;;;;0.32;99.69;100802.84;5025960;28;20041;-78
2022/01/08 02:48:44;;;;;;;32.80;12.32;;;;;;;0.25;99.48;100806.69;5030351;28;20045;-78
2022/01/08 02:51:09;;;;;;;29.65;12.93;;;;;;;0.19;99.52;100811.25;5015419;28;20590;-78
2022/01/08 02:53:35;;;;;;;27.85;12.35;;;;;;;0.21;99.46;100810.31;5027674;28;20038;-78
2022/01/08 02:56:00;;;;;;;28.85;13.05;;;;;;;0.17;99.90;100813.06;5030651;28;20028;-78
2022/01/08 02:58:28;;;;;;;24.50;12.75;;;;;;;0.32;99.89;100818.16;5029909;28;20050;-78
2022/01/08 03:00:55;;;;;;;31.35;12.23;;;;;;;0.23;99.37;100823.81;5015154;28;20079;-78
2022/01/08 03:03:20;;;;;;;35.03;13.90;;;;;;;0.32;99.59;100820.72;5014292;28;20392;-78
2022/01/08 03:05:46;;;;;;;30.80;13.77;;;;;;;0.31;99.26;100821.66;5025626;28;20049;-78
2022/01/08 03:08:11;;;;;;;25.52;12.43;;;;;;;0.22;99.10;100825.53;5014222;28;20053;-78
2022/01/08 03:10:37;;;;;;;27.77;12.95;;;;;;;0.13;99.17;100829.47;5008225;28;20038;-78
2022/01/08 03:13:02;;;;;;;35.03;13.05;;;;;;;0.09;99.80;100832.25;5026837;28;20672;-78
2022/01/08 03:15:32;;;;;;;27.88;13.63;;;;;;;0.16;99.84;100834.38;5029461;28;20038;-78
2022/01/08 03:17:58;;;;;;;30.90;15.40;;;;;;;0.16;99.64;100829.25;5012921;28;20038;-78
2022/01/08 03:20:24;;;;;;;33.05;13.60;;;;;;;0.15;99.84;100845.50;5011413;28;20038;-77
2022/01/08 03:22:49;;;;;;;29.70;14.38;;;;;;;0.15;99.99;100842.94;5012243;28;20041;-78
2022/01/08 03:25:16;;;;;;;34.55;15.15;;;;;;;0.06;99.36;100842.63;5014923;28;20040;-78
2022/01/08 03:27:42;;;;;;;35.65;14.50;;;;;;;0.19;99.73;100846.94;5028618;28;20061;-78
2022/01/08 03:30:10;;;;;;;30.92;14.82;;;;;;;0.26;99.28;100851.69;5030316;28;20037;-78
2022/01/08 03:32:35;;;;;;;32.13;15.55;;;;;;;0.28;99.49;100857.53;5014388;28;20045;-78
2022/01/08 03:35:01;;;;;;;30.88;15.82;;;;;;;0.21;99.16;100846.03;5024506;28;20498;-78
2022/01/08 03:37:27;;;;;;;39.75;15.98;;;;;;;0.03;99.14;100843.63;5019460;28;20042;-78
2022/01/08 03:39:52;;;;;;;32.97;16.63;;;;;;;0.08;99.92;100849.28;5004980;28;20084;-78
2022/01/08 03:42:18;;;;;;;35.25;17.63;;;;;;;0.01;100.00;100857.38;5022916;28;20046;-78
2022/01/08 03:44:43;;;;;;;40.40;17.70;;;;;;;0.13;99.92;100851.56;5021988;28;20038;-78
2022/01/08 03:47:28;;;;;;;45.92;17.80;;;;;;;0.02;99.82;100854.75;5006683;28;20751;-77
2022/01/08 03:49:56;;;;;;;41.83;18.35;;;;;;;0.08;99.91;100862.03;5006000;28;20029;-78
2022/01/08 03:52:22;;;;;;;37.10;17.90;;;;;;;0.06;99.59;100868.97;5020447;28;20087;-78
2022/01/08 03:54:48;;;;;;;39.72;17.17;;;;;;;-0.02;99.82;100866.00;5022056;28;20025;-78
2022/01/08 03:57:13;;;;;;;35.80;17.10;;;;;;;0.01;99.54;100865.84;5021294;28;20080;-78
2022/01/08 03:59:39;;;;;;;41.05;17.40;;;;;;;0.02;99.61;100872.59;5013425;28;20034;-78
2022/01/08 04:02:05;;;;;;;45.33;18.73;;;;;;;0.00;99.38;100871.88;5020510;28;20037;-78
2022/01/08 04:04:30;;;;;;;35.40;17.45;;;;;;;-0.04;99.89;100875.47;5019401;28;20573;-78
2022/01/08 04:06:56;;;;;;;49.47;17.83;;;;;;;-0.02;99.88;100877.03;5019644;28;20034;-78
2022/01/08 04:09:21;;;;;;;39.55;17.52;;;;;;;-0.05;99.78;100873.84;5005109;28;20044;-78
2022/01/08 04:11:47;;;;;;;39.13;16.70;;;;;;;-0.04;100.00;100875.47;5022462;28;20037;-78
2022/01/08 04:14:14;;;;;;;36.55;17.08;;;;;;;-0.07;99.86;100870.56;5004346;28;20384;-78
2022/01/08 04:16:44;;;;;;;49.08;18.08;;;;;;;-0.16;100.00;100879.53;5021474;28;20635;-78
2022/01/08 04:19:10;;;;;;;38.60;16.55;;;;;;;-0.05;100.00;100878.94;5005070;28;20465;-78
2022/01/08 04:24:05;;;;;;;45.80;16.63;;;;;;;-0.08;99.87;100885.00;5005982;28;20041;-78
2022/01/08 04:26:31;;;;;;;43.15;17.23;;;;;;;-0.02;99.34;100892.34;4989545;28;20053;-78
2022/01/08 04:28:57;;;;;;;41.00;16.10;;;;;;;-0.10;99.48;100893.66;5019659;28;20029;-77
2022/01/08 04:31:24;;;;;;;38.45;16.13;;;;;;;-0.22;99.86;100898.53;5005323;28;20033;-77
2022/01/08 04:33:49;;;;;;;44.28;17.73;;;;;;;-0.21;100.00;100907.00;5006069;28;20040;-78
2022/01/08 04:36:15;;;;;;;36.58;16.77;;;;;;;-0.18;100.00;100906.00;5021361;28;20030;-78
2022/01/08 04:38:41;;;;;;;38.45;16.23;;;;;;;-0.18;100.00;100903.47;4986052;28;20052;-78
2022/01/08 04:41:06;;;;;;;41.78;16.25;;;;;;;-0.24;100.00;100895.25;5005206;28;20044;-78
2022/01/08 04:43:33;;;;;;;35.40;16.40;;;;;;;-0.28;100.00;100887.84;5006227;28;20074;-77
2022/01/08 04:45:59;;;;;;;34.85;17.08;;;;;;;-0.33;100.00;100897.47;5020586;28;20222;-78
2022/01/08 04:48:24;;;;;;;35.20;16.70;;;;;;;-0.35;100.00;100904.38;5020141;28;20424;-78
2022/01/08 04:50:49;;;;;;;36.72;17.35;;;;;;;-0.35;100.00;100904.38;5022502;28;20045;-78
2022/01/08 04:53:15;;;;;;;36.42;16.42;;;;;;;-0.42;100.00;100901.34;4989535;28;20029;-78
2022/01/08 04:55:41;;;;;;;35.20;16.88;;;;;;;-0.26;100.00;100912.34;5004912;28;20045;-78
2022/01/08 04:58:07;;;;;;;34.53;15.45;;;;;;;-0.34;100.00;100908.56;5019449;28;20049;-77
2022/01/08 05:00:33;;;;;;;32.20;14.63;;;;;;;-0.43;100.00;100904.81;5005787;28;20029;-78
2022/01/08 05:02:59;;;;;;;35.95;15.77;;;;;;;-0.44;100.00;100905.69;5006479;28;20038;-78
2022/01/08 05:05:26;;;;;;;35.97;16.75;;;;;;;-0.44;100.00;100909.06;5004207;28;20030;-77
2022/01/08 05:07:51;;;;;;;35.08;15.45;;;;;;;-0.38;100.00;100913.00;5005331;28;20117;-78
2022/01/08 05:10:17;;;;;;;29.23;14.27;;;;;;;-0.43;100.00;100900.50;5006991;28;20844;-78
2022/01/08 05:12:43;;;;;;;32.17;15.88;;;;;;;-0.48;100.00;100914.41;5021264;28;20040;-78
2022/01/08 05:15:09;;;;;;;36.65;15.05;;;;;;;-0.47;100.00;100910.94;5004889;28;20053;-78
2022/01/08 05:17:35;;;;;;;37.65;15.82;;;;;;;-0.53;100.00;100908.72;5019270;28;20041;-78
2022/01/08 05:20:10;;;;;;;32.97;16.70;;;;;;;-0.57;100.00;100912.34;5017315;28;20042;-77
2022/01/08 05:25:08;;;;;;;32.50;15.50;;;;;;;-0.56;100.00;100924.19;5002498;28;20045;-78
2022/01/08 05:27:34;;;;;;;33.13;15.20;;;;;;;-0.57;100.00;100905.50;5024573;28;20112;-78
2022/01/08 05:29:59;;;;;;;33.85;14.60;;;;;;;-0.64;100.00;100915.22;5008132;28;20041;-78
2022/01/08 05:32:25;;;;;;;31.77;14.63;;;;;;;-0.58;100.00;100916.63;5020226;28;20129;-78
2022/01/08 05:34:51;;;;;;;35.25;15.43;;;;;;;-0.48;100.00;100925.41;5004929;28;20046;-78
2022/01/08 05:37:18;;;;;;;31.95;13.70;;;;;;;-0.48;100.00;100924.59;4999576;28;20038;-78
2022/01/08 05:39:45;;;;;;;32.13;14.35;;;;;;;-0.55;100.00;100925.81;5022349;28;20041;-78
2022/01/08 05:42:10;;;;;;;33.17;13.68;;;;;;;-0.57;100.00;100927.63;5002025;28;20046;-78
2022/01/08 05:44:36;;;;;;;31.67;14.73;;;;;;;-0.48;100.00;100924.59;5006499;28;20066;-77
2022/01/08 05:47:02;;;;;;;37.38;13.50;;;;;;;-0.48;100.00;100929.69;5014079;28;20037;-78
2022/01/08 05:49:28;;;;;;;29.52;13.80;;;;;;;-0.50;100.00;100934.06;5004535;28;20480;-78
2022/01/08 05:51:54;;;;;;;33.50;14.82;;;;;;;-0.57;100.00;100931.00;5005056;28;20040;-78
2022/01/08 05:54:19;;;;;;;29.45;14.05;;;;;;;-0.62;100.00;100936.34;5022682;28;20790;-77
2022/01/08 05:56:45;;;;;;;36.78;14.75;;;;;;;-0.65;100.00;100941.59;5019344;28;20123;-77
2022/01/08 05:59:10;;;;;;;35.70;14.80;;;;;;;-0.63;100.00;100944.88;5021590;28;20038;-77
2022/01/08 06:01:36;;;;;;;41.58;13.75;;;;;;;-0.62;100.00;100948.25;5021268;28;20048;-77
2022/01/08 06:04:02;;;;;;;34.05;13.95;;;;;;;-0.55;100.00;100948.75;5004511;28;20030;-77
2022/01/08 06:06:28;;;;;;;46.72;16.00;;;;;;;-0.60;100.00;100949.81;5002478;28;20087;-77
2022/01/08 06:08:53;;;;;;;36.78;14.13;;;;;;;-0.63;100.00;100951.69;5003024;28;20030;-78
2022/01/08 06:11:19;;;;;;;34.63;14.43;;;;;;;-0.60;100.00;100949.00;5018984;28;20518;-77
2022/01/08 06:13:44;;;;;;;33.92;14.32;;;;;;;-0.68;100.00;100949.41;5006732;28;20041;-77
2022/01/08 06:16:10;;;;;;;41.95;14.93;;;;;;;-0.67;100.00;100962.97;5006791;28;20042;-78
2022/01/08 06:18:36;;;;;;;40.95;15.35;;;;;;;-0.56;100.00;100964.94;5023831;28;20038;-77
2022/01/08 06:21:03;;;;;;;33.42;16.13;;;;;;;-0.60;100.00;100966.84;5008703;28;20069;-77
2022/01/08 06:23:29;;;;;;;36.10;14.57;;;;;;;-0.63;100.00;100972.91;5022996;28;20116;-77
2022/01/08 06:25:54;;;;;;;38.80;15.52;;;;;;;-0.57;100.00;100974.28;5007082;28;20343;-77
2022/01/08 06:28:20;;;;;;;45.80;16.27;;;;;;;-0.66;100.00;100975.63;5002046;28;20449;-77
2022/01/08 06:30:47;;;;;;;38.90;14.70;;;;;;;-0.65;100.00;100977.25;5023889;28;20025;-77
2022/01/08 06:33:13;;;;;;;44.45;16.35;;;;;;;-0.57;100.00;100986.22;5002651;28;20629;-77
2022/01/08 06:35:41;;;;;;;38.60;15.75;;;;;;;-0.60;100.00;100982.94;5023768;28;20064;-77
2022/01/08 06:38:07;;;;;;;33.38;15.88;;;;;;;-0.59;100.00;100983.75;5023105;28;20523;-77
2022/01/08 06:40:33;;;;;;;46.50;17.42;;;;;;;-0.53;100.00;100985.97;5003656;28;20113;-77
2022/01/08 06:42:58;;;;;;;45.40;17.88;;;;;;;-0.60;100.00;100977.03;5003238;28;20040;-77
2022/01/08 06:45:24;;;;;;;65.90;27.23;;;;;;;-0.65;100.00;100976.44;5008652;28;20045;-77
2022/01/08 06:47:49;;;;;;;60.47;23.30;;;;;;;-0.64;100.00;100984.00;5007130;28;20408;-77
2022/01/08 06:50:15;;;;;;;49.35;20.60;;;;;;;-0.61;100.00;100995.75;5022677;28;20504;-78
2022/01/08 06:52:40;;;;;;;43.50;17.25;;;;;;;-0.56;100.00;100985.34;5020562;28;20034;-77
2022/01/08 06:55:06;;;;;;;44.10;17.00;;;;;;;-0.59;100.00;100984.56;5006062;28;20476;-78
2022/01/08 06:57:32;;;;;;;44.85;18.48;;;;;;;-0.59;100.00;100984.56;5018808;28;20033;-76
2022/01/08 06:59:58;;;;;;;39.60;19.17;;;;;;;-0.61;100.00;100983.00;5026395;28;20037;-77
2022/01/08 07:02:23;;;;;;;48.88;19.85;;;;;;;-0.63;100.00;101002.66;5022899;28;20091;-77
2022/01/08 07:04:49;;;;;;;66.25;27.73;;;;;;;-0.53;100.00;100992.78;5006757;28;20129;-77
2022/01/08 07:07:14;;;;;;;49.20;22.00;;;;;;;-0.63;100.00;100990.72;5008131;28;21545;-77
2022/01/08 07:09:40;;;;;;;55.00;21.23;;;;;;;-0.52;100.00;100992.72;5023440;28;20034;-77
2022/01/08 07:12:06;;;;;;;49.85;20.98;;;;;;;-0.60;100.00;100995.66;5004134;28;20037;-77
2022/01/08 07:14:31;;;;;;;43.60;20.98;;;;;;;-0.61;100.00;100988.91;5003290;28;20129;-77
2022/01/08 07:16:57;;;;;;;48.03;20.17;;;;;;;-0.64;100.00;100989.09;5022059;28;20045;-77
2022/01/08 07:19:23;;;;;;;44.58;18.88;;;;;;;-0.54;100.00;100988.63;5022608;28;20481;-77
2022/01/08 07:21:49;;;;;;;56.70;20.25;;;;;;;-0.56;100.00;100995.53;5008804;28;20087;-77
2022/01/08 07:24:15;;;;;;;40.03;18.13;;;;;;;-0.50;100.00;100993.47;5018240;28;20153;-77
2022/01/08 07:26:40;;;;;;;41.88;18.98;;;;;;;-0.47;100.00;100985.69;5019161;28;20034;-77
2022/01/08 07:29:06;;;;;;;39.55;18.15;;;;;;;-0.59;100.00;100988.84;5022454;28;21750;-77
2022/01/08 07:31:31;;;;;;;41.33;18.02;;;;;;;-0.64;100.00;100995.88;5015785;28;20034;-77
2022/01/08 07:33:57;;;;;;;43.90;18.35;;;;;;;-0.63;100.00;100992.47;5007412;28;20037;-77
2022/01/08 07:36:23;;;;;;;44.42;18.17;;;;;;;-0.56;100.00;100995.53;5021173;28;20029;-77
2022/01/08 07:38:49;;;;;;;42.85;18.13;;;;;;;-0.52;100.00;100992.72;5005701;28;20100;-77
2022/01/08 07:41:15;;;;;;;52.13;19.90;;;;;;;-0.41;100.00;101000.63;4999773;28;20034;-77
2022/01/08 07:43:40;;;;;;;44.08;17.13;;;;;;;-0.40;100.00;101002.28;5017962;28;20068;-78
2022/01/08 07:46:06;;;;;;;47.42;18.55;;;;;;;-0.37;100.00;100993.66;5008179;28;20034;-77
2022/01/08 07:48:31;;;;;;;44.85;18.23;;;;;;;-0.36;100.00;101005.47;5022359;28;20041;-77
2022/01/08 07:50:58;;;;;;;48.40;21.95;;;;;;;-0.40;100.00;100992.09;5006564;28;20034;-77
2022/01/08 07:53:24;;;;;;;59.65;24.08;;;;;;;-0.32;100.00;101001.03;5007141;28;20316;-77
2022/01/08 07:55:49;;;;;;;75.35;29.50;;;;;;;-0.33;100.00;101002.78;5007386;28;20396;-77
2022/01/08 07:58:20;;;;;;;80.90;31.65;;;;;;;-0.28;100.00;101003.38;5006614;28;20038;-77
2022/01/08 08:00:46;;;;;;;70.90;29.25;;;;;;;-0.31;100.00;101010.34;5021635;28;20434;-77
2022/01/08 08:03:12;;;;;;;55.15;25.33;;;;;;;-0.31;100.00;101000.97;4988155;28;20160;-77
2022/01/08 08:05:37;;;;;;;58.00;21.75;;;;;;;-0.18;100.00;100992.69;5006369;28;20073;-77
2022/01/08 08:08:03;;;;;;;50.30;21.13;;;;;;;-0.25;100.00;100995.53;5020655;28;20037;-77
2022/01/08 08:10:29;;;;;;;61.33;20.38;;;;;;;-0.13;100.00;100991.53;5001717;28;20432;-77
2022/01/08 08:12:56;;;;;;;47.75;20.17;;;;;;;-0.15;100.00;100982.31;5019313;28;20034;-77
2022/01/08 08:15:21;;;;;;;49.45;21.05;;;;;;;-0.13;100.00;100985.59;5017081;28;20042;-77
2022/01/08 08:17:47;;;;;;;53.33;20.27;;;;;;;-0.05;100.00;100986.84;5001202;28;20041;-77
2022/01/08 08:20:13;;;;;;;47.20;19.98;;;;;;;0.02;100.00;100978.84;5021963;28;20038;-77
2022/01/08 08:22:40;;;;;;;55.90;22.10;;;;;;;0.04;100.00;100980.44;5002021;28;20103;-77
2022/01/08 08:25:07;;;;;;;57.92;20.45;;;;;;;0.27;100.00;100975.78;5022589;28;20034;-77
2022/01/08 08:27:32;;;;;;;49.47;18.85;;;;;;;0.17;100.00;100978.00;5020559;28;20116;-77
2022/01/08 08:29:58;;;;;;;44.45;19.65;;;;;;;0.31;100.00;100977.25;5010085;28;20446;-77
2022/01/08 08:32:23;;;;;;;47.83;18.50;;;;;;;0.38;100.00;100974.28;5023818;28;20037;-77
2022/01/08 08:34:51;;;;;;;52.33;21.15;;;;;;;0.36;100.00;100976.09;5021079;28;20037;-77
2022/01/08 08:37:17;;;;;;;53.95;20.90;;;;;;;0.44;100.00;100977.41;5006139;28;20025;-77
2022/01/08 08:39:42;;;;;;;43.97;19.75;;;;;;;0.42;100.00;100982.59;5005928;28;20034;-77
2022/01/08 08:42:08;;;;;;;51.97;19.35;;;;;;;0.43;100.00;100980.84;5005832;28;20104;-77
2022/01/08 08:44:34;;;;;;;48.13;20.73;;;;;;;0.41;100.00;100980.13;5029214;28;20037;-76
2022/01/08 08:46:59;;;;;;;45.38;19.05;;;;;;;0.38;100.00;100966.63;5019556;28;20420;-77
2022/01/08 08:49:26;;;;;;;50.45;19.02;;;;;;;0.51;99.95;100976.97;5005859;28;20065;-77
2022/01/08 08:51:51;;;;;;;51.40;20.35;;;;;;;0.48;100.00;100973.75;5006230;28;20053;-77
2022/01/08 08:54:17;;;;;;;51.30;20.02;;;;;;;0.58;99.55;100975.72;5021025;28;20553;-77
2022/01/08 08:56:42;;;;;;;53.97;19.98;;;;;;;0.56;99.56;100961.38;5019757;28;20034;-78
2022/01/08 08:59:09;;;;;;;49.33;20.17;;;;;;;0.69;99.68;100952.09;5021613;28;20152;-77
2022/01/08 09:01:35;;;;;;;47.00;18.70;;;;;;;0.78;99.06;100955.88;5021312;28;20120;-77
2022/01/08 09:04:00;;;;;;;50.65;18.15;;;;;;;0.70;99.50;100963.97;5020875;28;20033;-77
2022/01/08 09:06:26;;;;;;;50.38;20.05;;;;;;;0.73;99.70;100957.84;5022067;28;20096;-78
2022/01/08 09:08:53;;;;;;;81.07;39.25;;;;;;;0.68;99.41;100962.41;5004414;28;20045;-77
2022/01/08 09:11:19;;;;;;;52.88;20.10;;;;;;;0.87;99.66;100960.44;5019704;28;20065;-78
2022/01/08 09:13:44;;;;;;;61.35;21.30;;;;;;;0.83;98.99;100960.69;5001587;28;20434;-78
2022/01/08 09:16:10;;;;;;;45.50;19.15;;;;;;;0.99;98.90;100955.53;5021388;28;20555;-78
2022/01/08 09:18:36;;;;;;;52.92;20.85;;;;;;;1.08;98.40;100957.56;5019174;28;20038;-78
2022/01/08 09:21:02;;;;;;;50.47;19.10;;;;;;;1.05;98.71;100961.09;5011775;28;20045;-77
2022/01/08 09:23:28;;;;;;;56.20;19.27;;;;;;;1.14;98.23;100962.28;5020942;28;20038;-77
2022/01/08 09:25:53;;;;;;;55.75;18.60;;;;;;;1.11;98.33;100965.00;5006425;28;20095;-78
2022/01/08 09:28:19;;;;;;;50.72;19.77;;;;;;;1.15;98.08;100962.19;5022965;28;20041;-78
2022/01/08 09:30:44;;;;;;;50.08;22.00;;;;;;;1.22;98.35;100961.84;5018887;28;20388;-79
2022/01/08 09:33:11;;;;;;;59.03;21.58;;;;;;;1.17;98.33;100959.56;5023025;28;20037;-80
2022/01/08 09:35:36;;;;;;;61.00;20.52;;;;;;;1.20;98.54;100958.56;5021410;28;20128;-80
2022/01/08 09:38:02;;;;;;;56.95;21.50;;;;;;;1.26;98.28;100951.34;5005191;28;20034;-80
2022/01/08 09:40:28;;;;;;;53.65;19.85;;;;;;;1.30;97.57;100951.97;5022742;28;20041;-80
2022/01/08 09:42:54;;;;;;;50.40;20.92;;;;;;;1.30;97.43;100952.81;5021882;28;20471;-80
2022/01/08 09:45:20;;;;;;;55.55;20.52;;;;;;;1.42;96.88;100947.88;5023345;28;20034;-78
2022/01/08 09:47:45;;;;;;;61.38;22.13;;;;;;;1.42;96.76;100946.13;5008510;28;20056;-79
2022/01/08 09:50:11;;;;;;;55.08;20.35;;;;;;;1.39;97.16;100941.19;5026008;28;20065;-79
2022/01/08 09:52:36;;;;;;;59.25;22.58;;;;;;;1.27;97.44;100935.09;5007886;28;20030;-79
2022/01/08 09:55:06;;;;;;;58.80;21.63;;;;;;;1.28;97.59;100941.84;5014609;28;20034;-79
2022/01/08 09:57:31;;;;;;;64.82;23.10;;;;;;;1.45;97.60;100934.88;5022077;28;20038;-79
2022/01/08 09:59:57;;;;;;;59.17;22.95;;;;;;;1.45;96.76;100935.72;5025560;28;20041;-79
2022/01/08 10:02:23;;;;;;;61.72;21.05;;;;;;;1.49;96.18;100933.81;5009523;28;20068;-78
2022/01/08 10:04:50;;;;;;;61.83;22.08;;;;;;;1.56;95.96;100922.25;5009288;28;20370;-79
2022/01/08 10:07:16;;;;;;;65.68;23.15;;;;;;;1.50;95.93;100917.53;5025484;28;20814;-79
2022/01/08 10:10:12;;;;;;;51.80;20.45;;;;;;;1.62;95.37;100911.69;5019971;28;20042;-79
2022/01/08 10:12:46;;;;;;;53.67;21.13;;;;;;;1.55;95.35;100902.75;5008684;28;20068;-79
2022/01/08 10:17:59;;;;;;;58.00;21.08;;;;;;;1.59;94.93;100901.63;5016902;28;20492;-79
2022/01/08 10:20:37;;;;;;;47.60;17.05;;;;;;;1.64;94.13;100889.41;5025588;28;20081;-79
2022/01/08 10:23:08;;;;;;;42.10;18.58;;;;;;;1.70;93.75;100876.22;5010000;28;20037;-79
2022/01/08 10:25:33;;;;;;;42.80;19.13;;;;;;;1.67;93.94;100878.97;5023022;28;20258;-79
2022/01/08 10:27:59;;;;;;;54.28;19.80;;;;;;;1.77;93.60;100874.09;5008377;28;20394;-79
2022/01/08 10:30:28;;;;;;;38.22;16.77;;;;;;;1.85;93.67;100864.19;5025112;28;20104;-79
2022/01/08 10:33:01;;;;;;;33.53;14.48;;;;;;;1.95;92.12;100867.00;5023854;28;20038;-79
2022/01/08 10:35:46;;;;;;;34.40;13.32;;;;;;;1.92;91.63;100852.66;5025563;28;20045;-79
2022/01/08 10:38:12;;;;;;;34.00;13.95;;;;;;;2.01;90.60;100851.25;5024635;28;20068;-79
2022/01/08 10:40:37;;;;;;;28.35;13.30;;;;;;;1.96;90.67;100843.06;5009026;28;20045;-78
2022/01/08 10:43:21;;;;;;;31.52;12.95;;;;;;;2.08;90.64;100842.25;5009304;28;20030;-78
2022/01/08 10:45:47;;;;;;;25.20;11.93;;;;;;;2.26;89.11;100830.00;5003621;28;20500;-78
2022/01/08 10:48:13;;;;;;;27.10;13.00;;;;;;;2.24;88.75;100819.06;5023480;28;20096;-78
2022/01/08 10:50:38;;;;;;;29.02;11.23;;;;;;;2.29;89.14;100816.19;4999681;28;20038;-78
2022/01/08 10:53:04;;;;;;;27.30;12.05;;;;;;;2.18;88.46;100811.75;5010259;28;20531;-78
2022/01/08 10:55:31;;;;;;;28.17;12.20;;;;;;;2.27;87.90;100805.22;5006554;28;20480;-77
2022/01/08 10:57:56;;;;;;;26.48;12.10;;;;;;;2.31;88.02;100807.47;5004550;28;20571;-77
2022/01/08 11:00:30;;;;;;;25.00;10.98;;;;;;;2.31;87.93;100792.13;5022137;28;20243;-78
2022/01/08 11:02:56;;;;;;;19.67;10.27;;;;;;;2.23;87.86;100784.13;5007733;28;20087;-77
2022/01/08 11:05:22;;;;;;;29.30;9.90;;;;;;;2.25;87.54;100779.72;5002312;28;20042;-78
2022/01/08 11:07:47;;;;;;;23.08;10.60;;;;;;;2.31;87.56;100776.75;5019642;28;20033;-78
2022/01/08 11:10:17;;;;;;;25.85;10.43;;;;;;;2.27;87.89;100769.41;5004971;28;20472;-78
2022/01/08 11:12:45;;;;;;;22.77;9.98;;;;;;;2.39;87.29;100762.63;5004676;28;20050;-77
2022/01/08 11:17:49;;;;;;;20.00;8.20;;;;;;;2.47;86.70;100747.59;5005780;28;20554;-77
2022/01/08 11:20:17;;;;;;;18.75;8.65;;;;;;;2.55;85.63;100737.63;5025870;28;20428;-78
2022/01/08 11:22:45;;;;;;;22.92;9.00;;;;;;;2.42;86.12;100734.28;5022520;28;20136;-78
2022/01/08 11:25:23;;;;;;;28.05;9.13;;;;;;;2.50;86.16;100725.13;5022844;28;20103;-77
2022/01/08 11:28:05;;;;;;;21.98;9.07;;;;;;;2.61;85.68;100723.59;5003518;28;20042;-77
2022/01/08 11:30:57;;;;;;;22.25;8.25;;;;;;;2.63;85.51;100720.00;5019018;28;20663;-77
2022/01/08 11:33:30;;;;;;;17.43;8.13;;;;;;;2.54;85.81;100715.50;4995557;28;20559;-77